sensor_id;sensor_type;location;lat;lon;timestamp;temperature;humidity
17483;DHT22;8858;52.308;20.994;2023-01-01T00:00:37;14.10;99.90
17483;DHT22;8858;52.308;20.994;2023-01-01T00:03:07;14.10;99.90
17483;DHT22;8858;52.308;20.994;2023-01-01T00:05:37;14.10;99.90
17483;DHT22;8858;52.308;20.994;2023-01-01T00:08:06;14.10;99.90
17483;DHT22;8858;52.308;20.994;2023-01-01T00:10:36;14.10;99.90
17483;DHT22;8858;52.308;20.994;2023-01-01T00:13:05;14.10;99.90
17483;DHT22;8858;52.308;20.994;2023-01-01T00:15:34;14.10;99.90
17483;DHT22;8858;52.308;20.994;2023-01-01T00:18:04;14.20;99.90
17483;DHT22;8858;52.308;20.994;2023-01-01T00:20:34;14.20;99.90
17483;DHT22;8858;52.308;20.994;2023-01-01T00:23:02;14.20;99.90
17483;DHT22;8858;52.308;20.994;2023-01-01T00:25:32;14.20;99.90
17483;DHT22;8858;52.308;20.994;2023-01-01T00:28:01;14.20;99.90
17483;DHT22;8858;52.308;20.994;2023-01-01T00:30:29;14.20;99.90
17483;DHT22;8858;52.308;20.994;2023-01-01T00:32:58;14.20;99.90
17483;DHT22;8858;52.308;20.994;2023-01-01T00:35:27;14.20;99.90
17483;DHT22;8858;52.308;20.994;2023-01-01T00:38:01;14.10;99.90
17483;DHT22;8858;52.308;20.994;2023-01-01T00:40:30;14.10;99.90
17483;DHT22;8858;52.308;20.994;2023-01-01T00:42:59;14.10;99.90
17483;DHT22;8858;52.308;20.994;2023-01-01T00:45:27;14.10;99.90
17483;DHT22;8858;52.308;20.994;2023-01-01T00:47:55;14.10;99.90
17483;DHT22;8858;52.308;20.994;2023-01-01T00:50:26;14.10;99.90
17483;DHT22;8858;52.308;20.994;2023-01-01T00:52:54;14.10;99.90
17483;DHT22;8858;52.308;20.994;2023-01-01T00:55:24;14.10;99.90
17483;DHT22;8858;52.308;20.994;2023-01-01T00:57:53;14.20;99.90
17483;DHT22;8858;52.308;20.994;2023-01-01T01:00:22;14.20;99.90
17483;DHT22;8858;52.308;20.994;2023-01-01T01:02:53;14.10;99.90
17483;DHT22;8858;52.308;20.994;2023-01-01T01:05:23;14.10;99.90
17483;DHT22;8858;52.308;20.994;2023-01-01T01:07:51;14.10;99.90
17483;DHT22;8858;52.308;20.994;2023-01-01T01:10:20;14.10;99.90
17483;DHT22;8858;52.308;20.994;2023-01-01T01:12:51;14.20;99.90
17483;DHT22;8858;52.308;20.994;2023-01-01T01:15:21;14.10;99.90
17483;DHT22;8858;52.308;20.994;2023-01-01T01:17:50;14.20;99.90
17483;DHT22;8858;52.308;20.994;2023-01-01T01:20:19;14.20;99.90
17483;DHT22;8858;52.308;20.994;2023-01-01T01:22:50;14.20;99.90
17483;DHT22;8858;52.308;20.994;2023-01-01T01:25:18;14.20;99.90
17483;DHT22;8858;52.308;20.994;2023-01-01T01:27:51;14.20;99.90
17483;DHT22;8858;52.308;20.994;2023-01-01T01:30:20;14.10;99.90
17483;DHT22;8858;52.308;20.994;2023-01-01T01:32:48;14.10;99.90
17483;DHT22;8858;52.308;20.994;2023-01-01T01:35:17;14.20;99.90
17483;DHT22;8858;52.308;20.994;2023-01-01T01:37:46;14.20;99.90
17483;DHT22;8858;52.308;20.994;2023-01-01T01:40:15;14.20;99.90
17483;DHT22;8858;52.308;20.994;2023-01-01T01:42:45;14.20;99.90
17483;DHT22;8858;52.308;20.994;2023-01-01T01:45:17;14.20;99.90
17483;DHT22;8858;52.308;20.994;2023-01-01T01:47:48;14.20;99.90
17483;DHT22;8858;52.308;20.994;2023-01-01T01:50:24;14.20;99.90
17483;DHT22;8858;52.308;20.994;2023-01-01T01:53:01;14.20;99.90
17483;DHT22;8858;52.308;20.994;2023-01-01T01:55:33;14.20;99.90
17483;DHT22;8858;52.308;20.994;2023-01-01T01:58:02;14.30;99.90
17483;DHT22;8858;52.308;20.994;2023-01-01T02:00:32;14.20;99.90
17483;DHT22;8858;52.308;20.994;2023-01-01T02:03:05;14.30;99.90
17483;DHT22;8858;52.308;20.994;2023-01-01T02:05:36;14.30;99.90
17483;DHT22;8858;52.308;20.994;2023-01-01T02:08:10;14.30;99.90
17483;DHT22;8858;52.308;20.994;2023-01-01T02:10:40;14.30;99.90
17483;DHT22;8858;52.308;20.994;2023-01-01T02:13:10;14.30;99.90
17483;DHT22;8858;52.308;20.994;2023-01-01T02:15:46;14.40;99.90
17483;DHT22;8858;52.308;20.994;2023-01-01T02:18:19;14.40;99.90
17483;DHT22;8858;52.308;20.994;2023-01-01T02:20:53;14.40;99.90
17483;DHT22;8858;52.308;20.994;2023-01-01T02:23:54;14.50;99.90
17483;DHT22;8858;52.308;20.994;2023-01-01T02:26:43;14.50;99.90
17483;DHT22;8858;52.308;20.994;2023-01-01T02:29:32;14.50;99.90
17483;DHT22;8858;52.308;20.994;2023-01-01T02:32:07;14.50;99.90
17483;DHT22;8858;52.308;20.994;2023-01-01T02:34:40;14.50;99.90
17483;DHT22;8858;52.308;20.994;2023-01-01T02:37:12;14.50;99.90
17483;DHT22;8858;52.308;20.994;2023-01-01T02:39:47;14.50;99.90
17483;DHT22;8858;52.308;20.994;2023-01-01T02:42:19;14.50;99.90
17483;DHT22;8858;52.308;20.994;2023-01-01T02:44:55;14.50;99.90
17483;DHT22;8858;52.308;20.994;2023-01-01T02:47:24;14.50;99.90
17483;DHT22;8858;52.308;20.994;2023-01-01T02:49:57;14.50;99.90
17483;DHT22;8858;52.308;20.994;2023-01-01T02:52:44;14.50;99.90
17483;DHT22;8858;52.308;20.994;2023-01-01T02:55:25;14.50;99.90
17483;DHT22;8858;52.308;20.994;2023-01-01T02:58:00;14.60;99.90
17483;DHT22;8858;52.308;20.994;2023-01-01T03:00:54;14.60;99.90
17483;DHT22;8858;52.308;20.994;2023-01-01T03:03:27;14.60;99.90
17483;DHT22;8858;52.308;20.994;2023-01-01T03:06:03;14.60;99.90
17483;DHT22;8858;52.308;20.994;2023-01-01T03:08:57;14.60;99.90
17483;DHT22;8858;52.308;20.994;2023-01-01T03:11:33;14.70;99.90
17483;DHT22;8858;52.308;20.994;2023-01-01T03:14:07;14.70;99.90
17483;DHT22;8858;52.308;20.994;2023-01-01T03:16:44;14.70;99.90
17483;DHT22;8858;52.308;20.994;2023-01-01T03:19:21;14.70;99.90
17483;DHT22;8858;52.308;20.994;2023-01-01T03:21:55;14.70;99.90
17483;DHT22;8858;52.308;20.994;2023-01-01T03:24:31;14.70;99.90
17483;DHT22;8858;52.308;20.994;2023-01-01T03:27:03;14.70;99.90
17483;DHT22;8858;52.308;20.994;2023-01-01T03:29:39;14.70;99.90
17483;DHT22;8858;52.308;20.994;2023-01-01T03:32:13;14.70;99.90
17483;DHT22;8858;52.308;20.994;2023-01-01T03:34:48;14.80;99.90
17483;DHT22;8858;52.308;20.994;2023-01-01T03:37:24;14.80;99.90
17483;DHT22;8858;52.308;20.994;2023-01-01T03:39:57;14.80;99.90
17483;DHT22;8858;52.308;20.994;2023-01-01T03:42:31;14.80;99.90
17483;DHT22;8858;52.308;20.994;2023-01-01T03:45:03;14.80;99.90
17483;DHT22;8858;52.308;20.994;2023-01-01T03:47:34;14.80;99.90
17483;DHT22;8858;52.308;20.994;2023-01-01T03:50:06;14.80;99.90
17483;DHT22;8858;52.308;20.994;2023-01-01T03:52:42;14.80;99.90
17483;DHT22;8858;52.308;20.994;2023-01-01T03:55:19;14.80;99.90
17483;DHT22;8858;52.308;20.994;2023-01-01T03:57:55;14.80;99.90
17483;DHT22;8858;52.308;20.994;2023-01-01T04:00:28;14.80;99.90
17483;DHT22;8858;52.308;20.994;2023-01-01T04:03:01;14.80;99.90
17483;DHT22;8858;52.308;20.994;2023-01-01T04:05:38;14.80;99.90
17483;DHT22;8858;52.308;20.994;2023-01-01T04:08:07;14.80;99.90
17483;DHT22;8858;52.308;20.994;2023-01-01T04:10:45;14.80;99.90
17483;DHT22;8858;52.308;20.994;2023-01-01T04:13:14;14.70;99.90
17483;DHT22;8858;52.308;20.994;2023-01-01T04:15:45;14.80;99.90
17483;DHT22;8858;52.308;20.994;2023-01-01T04:18:16;14.80;99.90
17483;DHT22;8858;52.308;20.994;2023-01-01T04:20:45;14.70;99.90
17483;DHT22;8858;52.308;20.994;2023-01-01T04:23:13;14.70;99.90
17483;DHT22;8858;52.308;20.994;2023-01-01T04:25:42;14.70;99.90
17483;DHT22;8858;52.308;20.994;2023-01-01T04:28:10;14.60;99.90
17483;DHT22;8858;52.308;20.994;2023-01-01T04:30:39;14.60;99.90
17483;DHT22;8858;52.308;20.994;2023-01-01T04:33:06;14.60;99.90
17483;DHT22;8858;52.308;20.994;2023-01-01T04:35:39;14.50;99.90
17483;DHT22;8858;52.308;20.994;2023-01-01T04:38:11;14.60;99.90
17483;DHT22;8858;52.308;20.994;2023-01-01T04:40:43;14.60;99.90
17483;DHT22;8858;52.308;20.994;2023-01-01T04:43:11;14.60;99.90
17483;DHT22;8858;52.308;20.994;2023-01-01T04:45:40;14.60;99.90
17483;DHT22;8858;52.308;20.994;2023-01-01T04:48:08;14.60;99.90
17483;DHT22;8858;52.308;20.994;2023-01-01T04:50:36;14.60;99.90
17483;DHT22;8858;52.308;20.994;2023-01-01T04:53:06;14.60;99.90
17483;DHT22;8858;52.308;20.994;2023-01-01T04:55:34;14.60;99.90
17483;DHT22;8858;52.308;20.994;2023-01-01T04:58:06;14.50;99.90
17483;DHT22;8858;52.308;20.994;2023-01-01T05:00:34;14.50;99.90
17483;DHT22;8858;52.308;20.994;2023-01-01T05:03:04;14.50;99.90
17483;DHT22;8858;52.308;20.994;2023-01-01T05:05:32;14.50;99.90
17483;DHT22;8858;52.308;20.994;2023-01-01T05:08:00;14.60;99.90
17483;DHT22;8858;52.308;20.994;2023-01-01T05:10:30;14.60;99.90
17483;DHT22;8858;52.308;20.994;2023-01-01T05:13:00;14.60;99.90
17483;DHT22;8858;52.308;20.994;2023-01-01T05:15:29;14.60;99.90
17483;DHT22;8858;52.308;20.994;2023-01-01T05:17:58;14.60;99.90
17483;DHT22;8858;52.308;20.994;2023-01-01T05:20:26;14.60;99.90
17483;DHT22;8858;52.308;20.994;2023-01-01T05:22:54;14.60;99.90
17483;DHT22;8858;52.308;20.994;2023-01-01T05:25:24;14.50;99.90
17483;DHT22;8858;52.308;20.994;2023-01-01T05:27:54;14.50;99.90
17483;DHT22;8858;52.308;20.994;2023-01-01T05:30:23;14.50;99.90
17483;DHT22;8858;52.308;20.994;2023-01-01T05:32:52;14.60;99.90
17483;DHT22;8858;52.308;20.994;2023-01-01T05:35:21;14.60;99.90
17483;DHT22;8858;52.308;20.994;2023-01-01T05:37:53;14.70;99.90
17483;DHT22;8858;52.308;20.994;2023-01-01T05:40:22;14.60;99.90
17483;DHT22;8858;52.308;20.994;2023-01-01T05:42:50;14.60;99.90
17483;DHT22;8858;52.308;20.994;2023-01-01T05:45:20;14.60;99.90
17483;DHT22;8858;52.308;20.994;2023-01-01T05:47:48;14.60;99.90
17483;DHT22;8858;52.308;20.994;2023-01-01T05:50:17;14.60;99.90
17483;DHT22;8858;52.308;20.994;2023-01-01T05:52:45;14.60;99.90
17483;DHT22;8858;52.308;20.994;2023-01-01T05:55:14;14.60;99.90
17483;DHT22;8858;52.308;20.994;2023-01-01T05:57:43;14.60;99.90
17483;DHT22;8858;52.308;20.994;2023-01-01T06:00:13;14.60;99.90
17483;DHT22;8858;52.308;20.994;2023-01-01T06:02:43;14.60;99.90
17483;DHT22;8858;52.308;20.994;2023-01-01T06:05:12;14.60;99.90
17483;DHT22;8858;52.308;20.994;2023-01-01T06:07:40;14.60;99.90
17483;DHT22;8858;52.308;20.994;2023-01-01T06:10:14;14.60;99.90
17483;DHT22;8858;52.308;20.994;2023-01-01T06:12:43;14.60;99.90
17483;DHT22;8858;52.308;20.994;2023-01-01T06:15:12;14.50;99.90
17483;DHT22;8858;52.308;20.994;2023-01-01T06:17:40;14.50;99.90
17483;DHT22;8858;52.308;20.994;2023-01-01T06:20:10;14.50;99.90
17483;DHT22;8858;52.308;20.994;2023-01-01T06:22:39;14.60;99.90
17483;DHT22;8858;52.308;20.994;2023-01-01T06:25:08;14.60;99.90
17483;DHT22;8858;52.308;20.994;2023-01-01T06:27:38;14.50;99.90
17483;DHT22;8858;52.308;20.994;2023-01-01T06:30:07;14.50;99.90
17483;DHT22;8858;52.308;20.994;2023-01-01T06:32:36;14.50;99.90
17483;DHT22;8858;52.308;20.994;2023-01-01T06:35:08;14.50;99.90
17483;DHT22;8858;52.308;20.994;2023-01-01T06:37:38;14.50;99.90
17483;DHT22;8858;52.308;20.994;2023-01-01T06:40:07;14.50;99.90
17483;DHT22;8858;52.308;20.994;2023-01-01T06:42:37;14.50;99.90
17483;DHT22;8858;52.308;20.994;2023-01-01T06:45:07;14.60;99.90
17483;DHT22;8858;52.308;20.994;2023-01-01T06:47:36;14.50;99.90
17483;DHT22;8858;52.308;20.994;2023-01-01T06:50:06;14.50;99.90
17483;DHT22;8858;52.308;20.994;2023-01-01T06:52:35;14.50;99.90
17483;DHT22;8858;52.308;20.994;2023-01-01T06:55:06;14.50;99.90
17483;DHT22;8858;52.308;20.994;2023-01-01T06:57:37;14.50;99.90
17483;DHT22;8858;52.308;20.994;2023-01-01T07:00:07;14.50;99.90
17483;DHT22;8858;52.308;20.994;2023-01-01T07:02:36;14.40;99.90
17483;DHT22;8858;52.308;20.994;2023-01-01T07:05:06;14.50;99.90
17483;DHT22;8858;52.308;20.994;2023-01-01T07:07:36;14.50;99.90
17483;DHT22;8858;52.308;20.994;2023-01-01T07:10:09;14.50;99.90
17483;DHT22;8858;52.308;20.994;2023-01-01T07:12:38;14.50;99.90
17483;DHT22;8858;52.308;20.994;2023-01-01T07:15:07;14.50;99.90
17483;DHT22;8858;52.308;20.994;2023-01-01T07:17:38;14.50;99.90
17483;DHT22;8858;52.308;20.994;2023-01-01T07:20:07;14.50;99.90
17483;DHT22;8858;52.308;20.994;2023-01-01T07:22:37;14.50;99.90
17483;DHT22;8858;52.308;20.994;2023-01-01T07:25:09;14.50;99.90
17483;DHT22;8858;52.308;20.994;2023-01-01T07:27:43;14.50;99.90
17483;DHT22;8858;52.308;20.994;2023-01-01T07:30:12;14.50;99.90
17483;DHT22;8858;52.308;20.994;2023-01-01T07:32:40;14.50;99.90
17483;DHT22;8858;52.308;20.994;2023-01-01T07:35:09;14.50;99.90
17483;DHT22;8858;52.308;20.994;2023-01-01T07:37:38;14.50;99.90
17483;DHT22;8858;52.308;20.994;2023-01-01T07:40:11;14.60;99.90
17483;DHT22;8858;52.308;20.994;2023-01-01T07:42:40;14.60;99.90
17483;DHT22;8858;52.308;20.994;2023-01-01T07:45:11;14.60;99.90
17483;DHT22;8858;52.308;20.994;2023-01-01T07:47:41;14.50;99.90
17483;DHT22;8858;52.308;20.994;2023-01-01T07:50:14;14.50;99.90
17483;DHT22;8858;52.308;20.994;2023-01-01T07:52:44;14.50;99.90
17483;DHT22;8858;52.308;20.994;2023-01-01T07:55:15;14.50;99.90
17483;DHT22;8858;52.308;20.994;2023-01-01T07:57:48;14.50;99.90
17483;DHT22;8858;52.308;20.994;2023-01-01T08:00:18;14.60;99.90
17483;DHT22;8858;52.308;20.994;2023-01-01T08:02:47;14.60;99.90
17483;DHT22;8858;52.308;20.994;2023-01-01T08:05:19;14.70;99.90
17483;DHT22;8858;52.308;20.994;2023-01-01T08:07:53;14.70;99.90
17483;DHT22;8858;52.308;20.994;2023-01-01T08:10:23;14.70;99.90
17483;DHT22;8858;52.308;20.994;2023-01-01T08:12:51;14.70;99.90
17483;DHT22;8858;52.308;20.994;2023-01-01T08:15:23;14.80;99.90
17483;DHT22;8858;52.308;20.994;2023-01-01T08:17:55;14.80;99.90
17483;DHT22;8858;52.308;20.994;2023-01-01T08:20:23;14.90;99.90
17483;DHT22;8858;52.308;20.994;2023-01-01T08:22:55;15.00;99.90
17483;DHT22;8858;52.308;20.994;2023-01-01T08:25:34;14.90;99.90
17483;DHT22;8858;52.308;20.994;2023-01-01T08:28:03;14.90;99.90
17483;DHT22;8858;52.308;20.994;2023-01-01T08:30:32;15.00;99.90
17483;DHT22;8858;52.308;20.994;2023-01-01T08:33:00;15.00;99.90
17483;DHT22;8858;52.308;20.994;2023-01-01T08:35:29;15.10;99.90
17483;DHT22;8858;52.308;20.994;2023-01-01T08:37:57;15.10;99.90
17483;DHT22;8858;52.308;20.994;2023-01-01T08:40:29;15.20;99.90
17483;DHT22;8858;52.308;20.994;2023-01-01T08:42:59;15.20;99.90
17483;DHT22;8858;52.308;20.994;2023-01-01T08:45:28;15.30;99.90
17483;DHT22;8858;52.308;20.994;2023-01-01T08:47:56;15.30;99.90
17483;DHT22;8858;52.308;20.994;2023-01-01T08:50:25;15.40;99.90
17483;DHT22;8858;52.308;20.994;2023-01-01T08:52:57;15.50;99.90
17483;DHT22;8858;52.308;20.994;2023-01-01T08:55:26;15.60;99.90
17483;DHT22;8858;52.308;20.994;2023-01-01T08:57:55;15.60;99.90
17483;DHT22;8858;52.308;20.994;2023-01-01T09:00:25;15.70;99.90
17483;DHT22;8858;52.308;20.994;2023-01-01T09:02:53;15.80;99.90
17483;DHT22;8858;52.308;20.994;2023-01-01T09:05:22;15.80;99.90
17483;DHT22;8858;52.308;20.994;2023-01-01T09:07:50;15.80;99.90
17483;DHT22;8858;52.308;20.994;2023-01-01T09:10:20;15.90;99.90
17483;DHT22;8858;52.308;20.994;2023-01-01T09:12:49;15.90;99.90
17483;DHT22;8858;52.308;20.994;2023-01-01T09:15:17;16.00;99.90
17483;DHT22;8858;52.308;20.994;2023-01-01T09:17:46;16.10;99.90
17483;DHT22;8858;52.308;20.994;2023-01-01T09:20:15;16.20;99.90
17483;DHT22;8858;52.308;20.994;2023-01-01T09:22:43;16.30;99.90
17483;DHT22;8858;52.308;20.994;2023-01-01T09:25:11;16.40;99.90
17483;DHT22;8858;52.308;20.994;2023-01-01T09:27:40;16.50;99.90
17483;DHT22;8858;52.308;20.994;2023-01-01T09:30:12;16.50;99.90
17483;DHT22;8858;52.308;20.994;2023-01-01T09:32:40;16.50;99.90
17483;DHT22;8858;52.308;20.994;2023-01-01T09:35:10;16.50;99.90
17483;DHT22;8858;52.308;20.994;2023-01-01T09:37:39;16.50;99.90
17483;DHT22;8858;52.308;20.994;2023-01-01T09:40:22;16.50;99.90
17483;DHT22;8858;52.308;20.994;2023-01-01T09:43:03;16.50;99.90
17483;DHT22;8858;52.308;20.994;2023-01-01T09:45:41;16.50;99.90
17483;DHT22;8858;52.308;20.994;2023-01-01T09:48:17;16.50;99.90
17483;DHT22;8858;52.308;20.994;2023-01-01T09:50:47;16.60;99.90
17483;DHT22;8858;52.308;20.994;2023-01-01T09:53:19;16.70;99.90
17483;DHT22;8858;52.308;20.994;2023-01-01T09:55:52;16.70;99.90
17483;DHT22;8858;52.308;20.994;2023-01-01T09:58:25;16.70;99.90
17483;DHT22;8858;52.308;20.994;2023-01-01T10:01:03;16.80;99.90
17483;DHT22;8858;52.308;20.994;2023-01-01T10:03:38;16.80;99.90
17483;DHT22;8858;52.308;20.994;2023-01-01T10:06:19;16.80;99.90
17483;DHT22;8858;52.308;20.994;2023-01-01T10:09:00;16.80;99.90
17483;DHT22;8858;52.308;20.994;2023-01-01T10:11:37;16.90;99.90
17483;DHT22;8858;52.308;20.994;2023-01-01T10:14:16;16.90;99.90
17483;DHT22;8858;52.308;20.994;2023-01-01T10:16:47;16.90;99.90
17483;DHT22;8858;52.308;20.994;2023-01-01T10:19:23;16.90;99.90
17483;DHT22;8858;52.308;20.994;2023-01-01T10:21:59;16.90;99.90
17483;DHT22;8858;52.308;20.994;2023-01-01T10:24:36;17.00;99.90
17483;DHT22;8858;52.308;20.994;2023-01-01T10:27:18;17.00;99.90
17483;DHT22;8858;52.308;20.994;2023-01-01T10:29:53;17.10;99.90
17483;DHT22;8858;52.308;20.994;2023-01-01T10:32:32;17.10;99.90
17483;DHT22;8858;52.308;20.994;2023-01-01T10:35:08;17.10;99.90
17483;DHT22;8858;52.308;20.994;2023-01-01T10:37:42;17.20;99.90
17483;DHT22;8858;52.308;20.994;2023-01-01T10:40:16;17.20;99.90
17483;DHT22;8858;52.308;20.994;2023-01-01T10:42:48;17.20;99.90
17483;DHT22;8858;52.308;20.994;2023-01-01T10:45:20;17.30;99.90
17483;DHT22;8858;52.308;20.994;2023-01-01T10:48:25;17.30;99.90
17483;DHT22;8858;52.308;20.994;2023-01-01T10:50:57;17.30;99.90
17483;DHT22;8858;52.308;20.994;2023-01-01T10:53:29;17.40;99.90
17483;DHT22;8858;52.308;20.994;2023-01-01T10:56:03;17.40;99.90
17483;DHT22;8858;52.308;20.994;2023-01-01T10:58:41;17.40;99.90
17483;DHT22;8858;52.308;20.994;2023-01-01T11:01:12;17.50;99.90
17483;DHT22;8858;52.308;20.994;2023-01-01T11:03:57;17.50;99.90
17483;DHT22;8858;52.308;20.994;2023-01-01T11:06:32;17.60;99.90
17483;DHT22;8858;52.308;20.994;2023-01-01T11:09:03;17.60;99.90
17483;DHT22;8858;52.308;20.994;2023-01-01T11:11:42;17.70;99.90
17483;DHT22;8858;52.308;20.994;2023-01-01T11:14:19;17.70;99.90
17483;DHT22;8858;52.308;20.994;2023-01-01T11:16:48;17.80;99.90
17483;DHT22;8858;52.308;20.994;2023-01-01T11:19:22;17.90;99.90
17483;DHT22;8858;52.308;20.994;2023-01-01T11:21:55;18.00;99.90
17483;DHT22;8858;52.308;20.994;2023-01-01T11:24:27;18.10;99.90
17483;DHT22;8858;52.308;20.994;2023-01-01T11:27:12;18.20;99.90
17483;DHT22;8858;52.308;20.994;2023-01-01T11:29:41;18.20;99.90
17483;DHT22;8858;52.308;20.994;2023-01-01T11:32:17;18.20;99.90
17483;DHT22;8858;52.308;20.994;2023-01-01T11:34:56;18.30;99.90
17483;DHT22;8858;52.308;20.994;2023-01-01T11:37:27;18.30;99.90
17483;DHT22;8858;52.308;20.994;2023-01-01T11:40:00;18.40;99.90
17483;DHT22;8858;52.308;20.994;2023-01-01T11:42:32;18.40;99.90
17483;DHT22;8858;52.308;20.994;2023-01-01T11:45:02;18.50;99.90
17483;DHT22;8858;52.308;20.994;2023-01-01T11:47:37;18.50;99.90
17483;DHT22;8858;52.308;20.994;2023-01-01T11:50:18;18.50;99.90
17483;DHT22;8858;52.308;20.994;2023-01-01T11:52:51;18.50;99.90
17483;DHT22;8858;52.308;20.994;2023-01-01T11:55:33;18.60;99.90
17483;DHT22;8858;52.308;20.994;2023-01-01T11:58:12;18.60;99.90
17483;DHT22;8858;52.308;20.994;2023-01-01T12:00:49;18.70;99.90
17483;DHT22;8858;52.308;20.994;2023-01-01T12:03:23;18.70;99.90
17483;DHT22;8858;52.308;20.994;2023-01-01T12:06:03;18.70;99.90
17483;DHT22;8858;52.308;20.994;2023-01-01T12:08:36;18.80;99.90
17483;DHT22;8858;52.308;20.994;2023-01-01T12:11:13;18.90;99.90
17483;DHT22;8858;52.308;20.994;2023-01-01T12:13:48;18.90;99.90
17483;DHT22;8858;52.308;20.994;2023-01-01T12:16:22;18.90;99.90
17483;DHT22;8858;52.308;20.994;2023-01-01T12:18:59;19.00;99.90
17483;DHT22;8858;52.308;20.994;2023-01-01T12:21:29;19.00;99.90
17483;DHT22;8858;52.308;20.994;2023-01-01T12:24:01;19.10;99.90
17483;DHT22;8858;52.308;20.994;2023-01-01T12:26:43;19.10;99.90
17483;DHT22;8858;52.308;20.994;2023-01-01T12:29:36;19.10;99.90
17483;DHT22;8858;52.308;20.994;2023-01-01T12:32:13;19.20;99.90
17483;DHT22;8858;52.308;20.994;2023-01-01T12:34:50;19.10;99.90
17483;DHT22;8858;52.308;20.994;2023-01-01T12:37:32;19.10;99.90
17483;DHT22;8858;52.308;20.994;2023-01-01T12:40:37;19.00;99.90
17483;DHT22;8858;52.308;20.994;2023-01-01T12:43:09;18.90;99.90
17483;DHT22;8858;52.308;20.994;2023-01-01T12:45:56;18.90;99.90
17483;DHT22;8858;52.308;20.994;2023-01-01T12:48:45;18.80;99.90
17483;DHT22;8858;52.308;20.994;2023-01-01T12:51:29;18.70;99.90
17483;DHT22;8858;52.308;20.994;2023-01-01T12:54:22;18.50;99.90
17483;DHT22;8858;52.308;20.994;2023-01-01T12:56:58;18.50;99.90
17483;DHT22;8858;52.308;20.994;2023-01-01T12:59:32;18.40;99.90
17483;DHT22;8858;52.308;20.994;2023-01-01T13:02:11;18.30;99.90
17483;DHT22;8858;52.308;20.994;2023-01-01T13:04:41;18.20;99.90
17483;DHT22;8858;52.308;20.994;2023-01-01T13:07:11;18.20;99.90
17483;DHT22;8858;52.308;20.994;2023-01-01T13:09:45;18.10;99.90
17483;DHT22;8858;52.308;20.994;2023-01-01T13:12:16;18.00;99.90
17483;DHT22;8858;52.308;20.994;2023-01-01T13:14:48;18.00;99.90
17483;DHT22;8858;52.308;20.994;2023-01-01T13:17:18;17.90;99.90
17483;DHT22;8858;52.308;20.994;2023-01-01T13:19:48;17.80;99.90
17483;DHT22;8858;52.308;20.994;2023-01-01T13:22:36;17.80;99.90
17483;DHT22;8858;52.308;20.994;2023-01-01T13:25:20;17.70;99.90
17483;DHT22;8858;52.308;20.994;2023-01-01T13:28:18;17.70;99.90
17483;DHT22;8858;52.308;20.994;2023-01-01T13:30:51;17.60;99.90
17483;DHT22;8858;52.308;20.994;2023-01-01T13:33:22;17.60;99.90
17483;DHT22;8858;52.308;20.994;2023-01-01T13:36:29;17.50;99.90
17483;DHT22;8858;52.308;20.994;2023-01-01T13:38:58;17.50;99.90
17483;DHT22;8858;52.308;20.994;2023-01-01T13:41:31;17.50;99.90
17483;DHT22;8858;52.308;20.994;2023-01-01T13:44:17;17.40;99.90
17483;DHT22;8858;52.308;20.994;2023-01-01T13:47:07;17.40;99.90
17483;DHT22;8858;52.308;20.994;2023-01-01T13:49:50;17.30;99.90
17483;DHT22;8858;52.308;20.994;2023-01-01T13:52:44;17.30;99.90
17483;DHT22;8858;52.308;20.994;2023-01-01T13:58:21;17.20;99.90
17483;DHT22;8858;52.308;20.994;2023-01-01T14:01:04;17.10;99.90
17483;DHT22;8858;52.308;20.994;2023-01-01T14:03:39;17.10;99.90
17483;DHT22;8858;52.308;20.994;2023-01-01T14:06:10;17.10;99.90
17483;DHT22;8858;52.308;20.994;2023-01-01T14:08:39;17.10;99.90
17483;DHT22;8858;52.308;20.994;2023-01-01T14:11:18;17.10;99.90
17483;DHT22;8858;52.308;20.994;2023-01-01T14:13:47;17.10;99.90
17483;DHT22;8858;52.308;20.994;2023-01-01T14:16:15;17.00;99.90
17483;DHT22;8858;52.308;20.994;2023-01-01T14:18:48;17.00;99.90
17483;DHT22;8858;52.308;20.994;2023-01-01T14:21:18;16.90;99.90
17483;DHT22;8858;52.308;20.994;2023-01-01T14:23:50;16.90;99.90
17483;DHT22;8858;52.308;20.994;2023-01-01T14:26:21;16.90;99.90
17483;DHT22;8858;52.308;20.994;2023-01-01T14:28:52;16.90;99.90
17483;DHT22;8858;52.308;20.994;2023-01-01T14:31:24;16.80;99.90
17483;DHT22;8858;52.308;20.994;2023-01-01T14:33:55;16.70;99.90
17483;DHT22;8858;52.308;20.994;2023-01-01T14:36:27;16.70;99.90
17483;DHT22;8858;52.308;20.994;2023-01-01T14:38:59;16.60;99.90
17483;DHT22;8858;52.308;20.994;2023-01-01T14:41:29;16.60;99.90
17483;DHT22;8858;52.308;20.994;2023-01-01T14:44:03;16.60;99.90
17483;DHT22;8858;52.308;20.994;2023-01-01T14:46:38;16.60;99.90
17483;DHT22;8858;52.308;20.994;2023-01-01T14:49:10;16.60;99.90
17483;DHT22;8858;52.308;20.994;2023-01-01T14:51:45;16.60;99.90
17483;DHT22;8858;52.308;20.994;2023-01-01T14:54:17;16.60;99.90
17483;DHT22;8858;52.308;20.994;2023-01-01T14:56:49;16.60;99.90
17483;DHT22;8858;52.308;20.994;2023-01-01T14:59:21;16.60;99.90
17483;DHT22;8858;52.308;20.994;2023-01-01T15:01:58;16.60;99.90
17483;DHT22;8858;52.308;20.994;2023-01-01T15:04:29;16.60;99.90
17483;DHT22;8858;52.308;20.994;2023-01-01T15:06:59;16.50;99.90
17483;DHT22;8858;52.308;20.994;2023-01-01T15:09:30;16.50;99.90
17483;DHT22;8858;52.308;20.994;2023-01-01T15:12:02;16.50;99.90
17483;DHT22;8858;52.308;20.994;2023-01-01T15:14:34;16.50;99.90
17483;DHT22;8858;52.308;20.994;2023-01-01T15:17:05;16.40;99.90
17483;DHT22;8858;52.308;20.994;2023-01-01T15:19:36;16.40;99.90
17483;DHT22;8858;52.308;20.994;2023-01-01T15:22:09;16.30;99.90
17483;DHT22;8858;52.308;20.994;2023-01-01T15:24:44;16.30;99.90
17483;DHT22;8858;52.308;20.994;2023-01-01T15:27:20;16.30;99.90
17483;DHT22;8858;52.308;20.994;2023-01-01T15:29:50;16.20;99.90
17483;DHT22;8858;52.308;20.994;2023-01-01T15:32:24;16.20;99.90
17483;DHT22;8858;52.308;20.994;2023-01-01T15:34:55;16.10;99.90
17483;DHT22;8858;52.308;20.994;2023-01-01T15:37:30;16.10;99.90
17483;DHT22;8858;52.308;20.994;2023-01-01T15:40:31;16.00;99.90
17483;DHT22;8858;52.308;20.994;2023-01-01T15:43:12;16.00;99.90
17483;DHT22;8858;52.308;20.994;2023-01-01T15:45:52;16.00;99.90
17483;DHT22;8858;52.308;20.994;2023-01-01T15:48:27;15.90;99.90
17483;DHT22;8858;52.308;20.994;2023-01-01T15:53:54;15.90;99.90
17483;DHT22;8858;52.308;20.994;2023-01-01T15:56:25;15.80;99.90
17483;DHT22;8858;52.308;20.994;2023-01-01T15:58:59;15.80;99.90
17483;DHT22;8858;52.308;20.994;2023-01-01T16:01:37;15.80;99.90
17483;DHT22;8858;52.308;20.994;2023-01-01T16:04:08;15.70;99.90
17483;DHT22;8858;52.308;20.994;2023-01-01T16:06:42;15.70;99.90
17483;DHT22;8858;52.308;20.994;2023-01-01T16:09:14;15.70;99.90
17483;DHT22;8858;52.308;20.994;2023-01-01T16:11:43;15.70;99.90